Malto Hope — 3FDP4 — position and weather

sailwx.info

Track history (hours):
 
Tides and Currents Weather Stations Pressure Air Temp Water Temp Dewpoint Dewpoint Depression Visibility Wind Speed Wind Dir Waves Ship Positions

Malto Hope

Last reported at 2018-Feb-20 01:17 UTC. Time now 2018-Feb-20 01:55 UTC.
Position N 34°26' E 134°09'.

Length 169 m; draft 5.5 m.

Type: Cargo ship. MMSI: 371372000.

Date/timePositionNaut miles runAvg speedWind from/ knotsBaromVisibWave heightAir tempDewpointWater temp
2018-Feb-20 01:17N 34°26' E 134°09'413.6
2018-Feb-20 01:00N 34°24' E 134°14'613.1
2018-Feb-20 00:30N 34°25' E 134°22'713.4
2018-Feb-20 00:01N 34°27' E 134°29'713.4
2018-Feb-19 23:31N 34°30' E 134°37'713.3
2018-Feb-19 23:01N 34°32' E 134°44'713.3
2018-Feb-19 22:30N 34°35' E 134°52'612.7
2018-Feb-19 22:00N 34°38' E 134°59'5 9.3
2018-Feb-19 21:31N 34°36' E 135°04'3 6.6
2018-Feb-19 21:01N 34°34' E 135°08'4 8.6
2018-Feb-19 20:31N 34°30' E 135°08'611.6
2018-Feb-19 20:01N 34°25' E 135°04'611.4
2018-Feb-19 19:30N 34°20' E 135°01'510.3
2018-Feb-19 19:01N 34°15' E 134°59'510.5
2018-Feb-19 18:30N 34°10' E 134°59'5 9.2
2018-Feb-19 18:00N 34°05' E 134°60'510.3
2018-Feb-19 17:31N 34°00' E 134°60'510.3
2018-Feb-19 17:01N 33°55' E 134°59'510.6
2018-Feb-19 16:30N 33°50' E 134°59'158 3.9
2018-Feb-18 00:04N 34°13' E 138°07'2 8.3
2018-Feb-17 23:46N 34°14' E 138°10'3 7.7
2018-Feb-17 23:23N 34°15' E 138°13'3 7.3
2018-Feb-17 23:00N 34°16' E 138°17'5 7.6
2018-Feb-17 22:17N 34°18' E 138°23'2 6.7
2018-Feb-17 21:58N 34°19' E 138°25'4 6.0
2018-Feb-17 21:23N 34°20' E 138°29'3 6.6
2018-Feb-17 21:00N 34°21' E 138°32'4 7.2
2018-Feb-17 20:29N 34°23' E 138°36'4 7.9
2018-Feb-17 20:00N 34°24' E 138°40'5 8.3
2018-Feb-17 19:22N 34°27' E 138°46'3 8.1
2018-Feb-17 18:58N 34°28' E 138°49'4 7.8
2018-Feb-17 18:29N 34°28' E 138°54'4 8.5
2018-Feb-17 18:00N 34°29' E 138°59'6 9.5
2018-Feb-17 17:25N 34°34' E 139°03'4 9.9
2018-Feb-17 17:00N 34°37' E 139°05'811.2
2018-Feb-17 16:18N 34°44' E 139°11'310.2
2018-Feb-17 16:00N 34°46' E 139°13'510.5
2018-Feb-17 15:29N 34°51' E 139°17'510.1
2018-Feb-17 14:59N 34°54' E 139°22'510.7
2018-Feb-17 14:30N 34°57' E 139°27'511.2
2018-Feb-17 14:01N 34°60' E 139°32'611.9
2018-Feb-17 13:30N 35°03' E 139°39'612.3
2018-Feb-17 13:01N 35°07' E 139°44'510.4
2018-Feb-17 12:30N 35°12' E 139°46'612.0
2018-Feb-17 12:00N 35°18' E 139°44'612.4
2018-Feb-17 11:30N 35°24' E 139°43'612.7
2018-Feb-17 11:00N 35°29' E 139°48'4 6.9
2018-Feb-17 10:26N 35°29' E 139°43'0 0.0
2018-Feb-17 09:59N 35°29' E 139°43'0 0.0
2018-Feb-17 09:29N 35°29' E 139°43'0 0.0
2018-Feb-17 08:56N 35°29' E 139°43'0 0.0
2018-Feb-17 08:29N 35°29' E 139°43'0 0.0
2018-Feb-17 07:59N 35°29' E 139°43'0 0.0
2018-Feb-17 07:29N 35°29' E 139°43'0 0.0
2018-Feb-17 06:59N 35°29' E 139°43'0 0.0
2018-Feb-17 06:29N 35°29' E 139°43'0 0.0
2018-Feb-17 05:59N 35°29' E 139°43'0 0.0
2018-Feb-17 05:29N 35°29' E 139°43'0 0.0
2018-Feb-17 04:59N 35°29' E 139°43'0 0.0
2018-Feb-17 04:29N 35°29' E 139°43'0 0.0
2018-Feb-17 03:59N 35°29' E 139°43'0 0.0
2018-Feb-17 03:29N 35°29' E 139°43'0 0.0
2018-Feb-17 02:59N 35°29' E 139°43'0 0.0
2018-Feb-17 02:29N 35°29' E 139°43'0 0.0
2018-Feb-17 01:59N 35°29' E 139°43'0 0.0
2018-Feb-17 01:29N 35°29' E 139°43'0 0.0
2018-Feb-17 00:56N 35°29' E 139°43'0 0.0
2018-Feb-17 00:29N 35°29' E 139°43'0 0.0
2018-Feb-16 23:59N 35°29' E 139°43'0 0.0
2018-Feb-16 23:29N 35°29' E 139°43'0 0.0
2018-Feb-16 22:59N 35°29' E 139°43'0 0.8
2018-Feb-16 22:31N 35°29' E 139°42'2 4.6
2018-Feb-16 22:01N 35°27' E 139°43'2 3.2
2018-Feb-16 21:30N 35°27' E 139°45'1 2.2
2018-Feb-16 21:00N 35°28' E 139°47'0 0.1
2018-Feb-16 20:30N 35°28' E 139°47'0 0.1
2018-Feb-16 20:00N 35°28' E 139°47'0 0.0
2018-Feb-16 19:30N 35°28' E 139°47'0 0.1
2018-Feb-16 19:00N 35°28' E 139°47'0 0.1
2018-Feb-16 18:30N 35°28' E 139°47'0 0.0
2018-Feb-16 18:00N 35°28' E 139°47'0 0.0
2018-Feb-16 17:30N 35°28' E 139°47'0 0.0
2018-Feb-16 17:00N 35°28' E 139°47'0 0.1
2018-Feb-16 16:30N 35°28' E 139°47'0 0.0
2018-Feb-16 16:00N 35°28' E 139°47'0 0.0
2018-Feb-16 15:30N 35°28' E 139°47'0 0.0
2018-Feb-16 15:00N 35°28' E 139°47'0 0.0
2018-Feb-16 14:30N 35°28' E 139°47'0 0.1
2018-Feb-16 14:00N 35°28' E 139°47'0 0.0
2018-Feb-16 13:27N 35°28' E 139°47'0 0.0
2018-Feb-16 13:00N 35°28' E 139°47'0 0.0
2018-Feb-16 12:30N 35°28' E 139°47'0 0.0
2018-Feb-16 12:00N 35°28' E 139°47'0 0.0
2018-Feb-16 11:30N 35°28' E 139°47'0 0.0
2018-Feb-16 11:00N 35°28' E 139°47'0 0.0
2018-Feb-16 10:30N 35°28' E 139°47'0 0.0
2018-Feb-16 10:00N 35°28' E 139°47'0 0.0
2018-Feb-16 09:30N 35°28' E 139°47'0 0.0
2018-Feb-16 09:00N 35°28' E 139°47'0 0.0
2018-Feb-16 08:30N 35°28' E 139°47'0 0.0
2018-Feb-16 08:00N 35°28' E 139°47'0 0.1
2018-Feb-16 07:30N 35°28' E 139°47'0 0.0
2018-Feb-16 07:00N 35°28' E 139°47'0 0.0
2018-Feb-16 06:30N 35°28' E 139°47'0 0.0
2018-Feb-16 06:00N 35°28' E 139°47'0 0.0
2018-Feb-16 05:30N 35°28' E 139°47'0 0.0
2018-Feb-16 04:54N 35°28' E 139°47'0 0.0
2018-Feb-16 04:30N 35°28' E 139°47'0 0.1
2018-Feb-16 04:00N 35°28' E 139°47'0 0.0
2018-Feb-16 03:30N 35°28' E 139°47'0 0.0
2018-Feb-16 03:00N 35°28' E 139°47'0 0.0
2018-Feb-16 02:30N 35°28' E 139°47'0 0.0
2018-Feb-16 02:00N 35°28' E 139°47'0 0.0
2018-Feb-16 01:30N 35°28' E 139°47'0 0.0
2018-Feb-16 01:00N 35°28' E 139°47'0 0.0
2018-Feb-16 00:30N 35°28' E 139°47'0 0.1
2018-Feb-16 00:00N 35°28' E 139°47'0 0.1
2018-Feb-15 23:30N 35°28' E 139°47'0 0.0
2018-Feb-15 23:00N 35°28' E 139°47'0 0.0
2018-Feb-15 22:30N 35°28' E 139°47'0 0.1
2018-Feb-15 22:00N 35°28' E 139°47'0 0.0
2018-Feb-15 21:30N 35°28' E 139°47'0 0.1
2018-Feb-15 21:00N 35°27' E 139°47'0 0.0
2018-Feb-15 20:30N 35°28' E 139°47'0 0.0
2018-Feb-15 20:00N 35°28' E 139°47'0 0.0
2018-Feb-15 19:30N 35°28' E 139°47'0 0.0
2018-Feb-15 19:00N 35°28' E 139°47'0 0.0
2018-Feb-15 18:30N 35°28' E 139°47'0 0.0
2018-Feb-15 18:00N 35°28' E 139°47'0 0.0
2018-Feb-15 17:30N 35°28' E 139°47'0 0.0
2018-Feb-15 17:00N 35°28' E 139°47'0 0.0
2018-Feb-15 16:30N 35°28' E 139°47'0 0.1
2018-Feb-15 16:00N 35°28' E 139°47'0 0.1
2018-Feb-15 15:30N 35°28' E 139°47'0 0.2
2018-Feb-15 15:00N 35°28' E 139°47'0 0.0
2018-Feb-15 14:30N 35°28' E 139°47'0 0.0
2018-Feb-15 14:00N 35°28' E 139°47'0 0.0
2018-Feb-15 13:30N 35°28' E 139°47'0 0.0
2018-Feb-15 13:00N 35°28' E 139°47'0 0.0
2018-Feb-15 12:30N 35°28' E 139°47'0 0.0
2018-Feb-15 12:00N 35°28' E 139°47'0 0.0
2018-Feb-15 11:30N 35°28' E 139°47'0 0.0
2018-Feb-15 11:00N 35°28' E 139°47'0 0.0
2018-Feb-15 10:30N 35°28' E 139°47'0 0.0
2018-Feb-15 10:00N 35°28' E 139°47'0 0.0
2018-Feb-15 09:30N 35°28' E 139°47'0 0.1
2018-Feb-15 09:00N 35°28' E 139°47'0 0.0
2018-Feb-15 08:30N 35°28' E 139°47'0 0.1
2018-Feb-15 08:00N 35°28' E 139°47'0 0.1
2018-Feb-15 07:30N 35°28' E 139°47'0 0.0
2018-Feb-15 07:00N 35°28' E 139°47'0 0.0
2018-Feb-15 06:24N 35°28' E 139°47'0 0.0
2018-Feb-15 06:00N 35°28' E 139°47'0 0.0
2018-Feb-15 05:30N 35°28' E 139°47'0 0.1
2018-Feb-15 05:00N 35°28' E 139°47'0 0.0
2018-Feb-15 04:30N 35°28' E 139°47'0 0.1
2018-Feb-15 04:00N 35°28' E 139°47'0 0.1
2018-Feb-15 03:30N 35°28' E 139°47'0 0.0
2018-Feb-15 03:00N 35°28' E 139°47'0 0.0
2018-Feb-15 02:30N 35°28' E 139°47'0 0.1
2018-Feb-15 02:00N 35°28' E 139°47'0 0.0
2018-Feb-15 01:30N 35°28' E 139°47'0 0.0
2018-Feb-15 01:00N 35°28' E 139°47'0 0.1
2018-Feb-15 00:30N 35°28' E 139°47'0 0.1
2018-Feb-15 00:00N 35°28' E 139°47'0 0.1
2018-Feb-14 23:30N 35°28' E 139°47'0 0.0
2018-Feb-14 23:00N 35°28' E 139°47'0 0.2
2018-Feb-14 22:27N 35°28' E 139°47'0 0.1
2018-Feb-14 22:00N 35°28' E 139°47'0 0.2
2018-Feb-14 21:30N 35°28' E 139°47'0 0.0
2018-Feb-14 21:00N 35°28' E 139°47'0 0.1
2018-Feb-14 20:27N 35°28' E 139°47'0 0.0
2018-Feb-14 20:00N 35°28' E 139°47'0 0.0
2018-Feb-14 19:30N 35°28' E 139°47'0 0.0
2018-Feb-14 19:00N 35°28' E 139°47'0 0.1
2018-Feb-14 18:30N 35°28' E 139°47'0 0.0
2018-Feb-14 18:00N 35°28' E 139°47'0 0.0
2018-Feb-14 17:30N 35°28' E 139°47'0 0.0
2018-Feb-14 17:00N 35°28' E 139°47'0 0.0
2018-Feb-14 16:30N 35°28' E 139°47'0 0.0
2018-Feb-14 16:00N 35°28' E 139°47'0 0.1
2018-Feb-14 15:30N 35°28' E 139°47'0 0.1
2018-Feb-14 15:00N 35°28' E 139°47'0 0.0
2018-Feb-14 14:30N 35°28' E 139°47'0 0.1
2018-Feb-14 14:00N 35°28' E 139°47'0 0.0
2018-Feb-14 13:30N 35°28' E 139°47'0 0.0
2018-Feb-14 12:57N 35°28' E 139°47'0 0.0
2018-Feb-14 12:30N 35°28' E 139°47'0 0.1
2018-Feb-14 12:00N 35°28' E 139°47'0 0.0
2018-Feb-14 11:30N 35°28' E 139°47'0 0.1
2018-Feb-14 11:00N 35°28' E 139°47'0 0.1
2018-Feb-14 10:30N 35°28' E 139°47'0 0.0
2018-Feb-14 10:00N 35°28' E 139°47'0 0.0
2018-Feb-14 09:30N 35°28' E 139°47'0 0.0
2018-Feb-14 09:00N 35°28' E 139°47'0 0.6
2018-Feb-14 08:30N 35°27' E 139°47'0 0.1
2018-Feb-14 08:00N 35°27' E 139°47'0 0.5
2018-Feb-14 07:30N 35°27' E 139°47'0 0.2
2018-Feb-14 06:58N 35°28' E 139°47'0 0.3
2018-Feb-14 06:28N 35°28' E 139°47'0 0.6
2018-Feb-14 06:01N 35°28' E 139°47'4 7.3
2018-Feb-14 05:31N 35°30' E 139°51'510.3
2018-Feb-14 05:00N 35°32' E 139°56'510.6
2018-Feb-14 04:30N 35°35' E 140°02'3 6.0
2018-Feb-14 04:00N 35°36' E 140°05'0 0.2
2018-Feb-14 03:25N 35°36' E 140°05'0 0.0
2018-Feb-14 02:55N 35°36' E 140°05'0 0.0
2018-Feb-14 02:25N 35°36' E 140°05'0 0.0
2018-Feb-14 01:55N 35°36' E 140°05'0 0.0
2018-Feb-14 01:28N 35°36' E 140°05'0 0.0
2018-Feb-14 00:55N 35°36' E 140°05'0 0.0
2018-Feb-14 00:25N 35°36' E 140°05'0 0.0
2018-Feb-13 23:55N 35°36' E 140°05'0 0.0
2018-Feb-13 23:25N 35°36' E 140°05'0 0.0
2018-Feb-13 22:55N 35°36' E 140°05'0 0.0
2018-Feb-13 22:25N 35°36' E 140°05'0 0.0
2018-Feb-13 21:55N 35°36' E 140°05'0 0.0
2018-Feb-13 21:25N 35°36' E 140°05'0 0.0
2018-Feb-13 20:55N 35°36' E 140°05'0 0.0
2018-Feb-13 20:25N 35°36' E 140°05'0 0.0
2018-Feb-13 19:55N 35°36' E 140°05'0 0.0
2018-Feb-13 19:25N 35°36' E 140°05'0 0.0
2018-Feb-13 18:55N 35°36' E 140°05'0 0.0
2018-Feb-13 18:25N 35°36' E 140°05'0 0.0
2018-Feb-13 17:55N 35°36' E 140°05'0 0.0
2018-Feb-13 17:25N 35°36' E 140°05'0 0.0
2018-Feb-13 16:55N 35°36' E 140°05'0 0.0
2018-Feb-13 16:25N 35°36' E 140°05'0 0.0
2018-Feb-13 15:55N 35°36' E 140°05'0 0.0
2018-Feb-13 15:25N 35°36' E 140°05'0 0.0
2018-Feb-13 14:55N 35°36' E 140°05'0 0.0
2018-Feb-13 14:25N 35°36' E 140°05'0 0.0
2018-Feb-13 13:55N 35°36' E 140°05'0 0.0
2018-Feb-13 13:25N 35°36' E 140°05'0 0.0
2018-Feb-13 12:55N 35°36' E 140°05'0 0.0
2018-Feb-13 12:25N 35°36' E 140°05'0 0.0
2018-Feb-13 11:55N 35°36' E 140°05'0 0.0
2018-Feb-13 11:25N 35°36' E 140°05'0 0.0
2018-Feb-13 10:55N 35°36' E 140°05'0 0.0
2018-Feb-13 10:25N 35°36' E 140°05'0 0.0
2018-Feb-13 09:55N 35°36' E 140°05'0 0.0
2018-Feb-13 09:19N 35°36' E 140°05'0 0.0
2018-Feb-13 08:55N 35°36' E 140°05'0 0.0
2018-Feb-13 08:25N 35°36' E 140°05'0 0.0
2018-Feb-13 07:55N 35°36' E 140°05'0 0.0
2018-Feb-13 07:25N 35°36' E 140°05'0 0.0
2018-Feb-13 06:55N 35°36' E 140°05'0 0.0
2018-Feb-13 06:25N 35°36' E 140°05'0 0.0
2018-Feb-13 05:55N 35°36' E 140°05'0 0.0
2018-Feb-13 05:25N 35°36' E 140°05'0 0.0
2018-Feb-13 04:55N 35°36' E 140°05'0 0.0
2018-Feb-13 04:25N 35°36' E 140°05'0 0.0
2018-Feb-13 03:55N 35°36' E 140°05'0 0.0
2018-Feb-13 03:25N 35°36' E 140°05'0 0.0
2018-Feb-13 02:55N 35°36' E 140°05'0 0.0
2018-Feb-13 02:25N 35°36' E 140°05'0 0.0
2018-Feb-13 01:55N 35°36' E 140°05'0 0.0
2018-Feb-13 01:25N 35°36' E 140°05'0 0.0
2018-Feb-13 00:58N 35°36' E 140°05'0 0.0
2018-Feb-13 00:25N 35°36' E 140°05'0 0.0
2018-Feb-12 23:49N 35°36' E 140°05'0 0.0
2018-Feb-12 23:25N 35°36' E 140°05'0 0.0
2018-Feb-12 22:55N 35°36' E 140°05'0 1.1
2018-Feb-12 22:30N 35°36' E 140°05'3 6.0
2018-Feb-12 22:00N 35°35' E 140°02'4 6.6
2018-Feb-12 21:27N 35°32' E 139°59'0 0.1
2018-Feb-12 20:58N 35°32' E 139°59'0 0.1
2018-Feb-12 20:27N 35°32' E 139°59'0 0.3
2018-Feb-12 19:57N 35°32' E 139°59'0 0.0
2018-Feb-12 19:27N 35°32' E 139°59'0 0.0
2018-Feb-12 18:55N 35°32' E 139°59'0 0.0
2018-Feb-12 18:10N 35°32' E 139°59'0 0.1
2018-Feb-12 17:57N 35°32' E 139°59'0 0.0
2018-Feb-12 17:27N 35°32' E 139°59'0 0.0
2018-Feb-12 16:58N 35°32' E 139°59'0 0.0
2018-Feb-12 16:28N 35°32' E 139°59'0 0.0
2018-Feb-12 15:57N 35°32' E 139°59'0 0.0
2018-Feb-12 15:16N 35°32' E 139°59'0 0.1
2018-Feb-12 14:57N 35°32' E 139°59'0 0.0
2018-Feb-12 14:04N 35°32' E 139°59'0 0.0
2018-Feb-12 14:00N 35°32' E 139°59'0 0.0
2018-Feb-12 13:27N 35°32' E 139°59'0 0.0
2018-Feb-12 12:58N 35°32' E 139°59'0 0.0
2018-Feb-12 12:27N 35°32' E 139°59'0 0.0
2018-Feb-12 11:42N 35°32' E 139°59'0 0.1
2018-Feb-12 11:22N 35°32' E 139°59'0 0.0
2018-Feb-12 10:57N 35°32' E 139°59'0 0.0
2018-Feb-12 10:27N 35°32' E 139°59'0 0.0
2018-Feb-12 09:57N 35°32' E 139°59'0 0.1
2018-Feb-12 09:27N 35°32' E 139°59'0 0.0
2018-Feb-12 08:57N 35°32' E 139°59'0 0.0
2018-Feb-12 08:27N 35°32' E 139°59'0 0.0
2018-Feb-12 07:57N 35°32' E 139°59'0 0.0
2018-Feb-12 07:31N 35°32' E 139°59'0 0.0
2018-Feb-12 06:58N 35°32' E 139°59'0 0.0
2018-Feb-12 06:30N 35°32' E 139°59'0 0.0
2018-Feb-12 06:00N 35°32' E 139°59'0 0.0
2018-Feb-12 05:27N 35°32' E 139°59'0 0.0
2018-Feb-12 04:57N 35°32' E 139°59'0 0.0
2018-Feb-12 04:28N 35°32' E 139°59'0 0.0
2018-Feb-12 03:57N 35°32' E 139°59'0 0.0
2018-Feb-12 03:30N 35°32' E 139°59'0 0.0
2018-Feb-12 02:58N 35°32' E 139°59'0 0.1
2018-Feb-12 02:30N 35°32' E 139°59'0 0.0
2018-Feb-12 02:00N 35°32' E 139°59'0 0.0
2018-Feb-12 01:27N 35°32' E 139°59'0 0.0
2018-Feb-12 01:01N 35°32' E 139°59'0 0.0
2018-Feb-12 00:31N 35°32' E 139°59'0 0.0
2018-Feb-11 23:57N 35°32' E 139°59'0 0.0
2018-Feb-11 23:28N 35°32' E 139°59'0 0.0
2018-Feb-11 22:46N 35°32' E 139°59'0 0.0
2018-Feb-11 22:27N 35°32' E 139°59'0 0.1
2018-Feb-11 21:57N 35°32' E 139°59'0 0.2
2018-Feb-11 21:27N 35°32' E 139°59'0 0.1
2018-Feb-11 20:51N 35°32' E 139°59'0 0.1
2018-Feb-11 20:28N 35°32' E 139°59'0 0.0
2018-Feb-11 20:00N 35°32' E 139°59'0 0.1
2018-Feb-11 19:27N 35°32' E 139°59'0 0.1
2018-Feb-11 18:57N 35°32' E 139°59'0 0.0
2018-Feb-11 18:27N 35°32' E 139°59'0 0.0
2018-Feb-11 17:57N 35°32' E 139°59'0 0.0
2018-Feb-11 17:27N 35°32' E 139°59'0 0.0
2018-Feb-11 16:57N 35°32' E 139°59'0 0.0
2018-Feb-11 16:27N 35°32' E 139°59'0 0.0
2018-Feb-11 15:57N 35°32' E 139°59'0 0.0
2018-Feb-11 15:27N 35°32' E 139°59'0 0.0
2018-Feb-11 14:57N 35°32' E 139°59'0 0.0
2018-Feb-11 14:27N 35°32' E 139°59'0 0.0
2018-Feb-11 13:57N 35°32' E 139°59'0 0.0
2018-Feb-11 13:30N 35°32' E 139°59'0 0.0
2018-Feb-11 12:58N 35°32' E 139°59'0 0.0
2018-Feb-11 12:27N 35°32' E 139°59'0 0.0
2018-Feb-11 12:00N 35°32' E 139°59'0 0.0
2018-Feb-11 11:27N 35°32' E 139°59'0 0.0
2018-Feb-11 10:57N 35°32' E 139°59'0 0.0
2018-Feb-11 10:27N 35°32' E 139°59'0 0.0
2018-Feb-11 09:58N 35°32' E 139°59'0 0.0
2018-Feb-11 09:27N 35°32' E 139°59'0 0.1
2018-Feb-11 09:00N 35°32' E 139°59'0 0.0
2018-Feb-11 08:27N 35°32' E 139°59'0 0.0
2018-Feb-11 07:57N 35°32' E 139°59'0 0.0
2018-Feb-11 07:28N 35°32' E 139°59'0 0.0
2018-Feb-11 06:57N 35°32' E 139°59'0 0.0
2018-Feb-11 06:27N 35°32' E 139°59'0 0.1
2018-Feb-11 05:57N 35°32' E 139°59'0 0.1
2018-Feb-11 05:27N 35°32' E 139°59'0 0.1
2018-Feb-11 05:00N 35°32' E 139°59'0 0.0
2018-Feb-11 04:30N 35°32' E 139°59'0 0.2
2018-Feb-11 04:01N 35°32' E 139°59'0 0.1
2018-Feb-11 03:15N 35°32' E 139°59'0 0.0
2018-Feb-11 02:57N 35°32' E 139°59'0 0.0
2018-Feb-11 02:28N 35°32' E 139°59'0 0.0
2018-Feb-11 01:57N 35°32' E 139°59'0 0.0
2018-Feb-11 01:27N 35°32' E 139°59'0 0.1
2018-Feb-11 01:01N 35°32' E 139°59'0 0.0
2018-Feb-11 00:30N 35°32' E 139°59'0 0.0
2018-Feb-11 00:00N 35°32' E 139°59'0 0.0
2018-Feb-10 23:30N 35°32' E 139°59'0 0.0
2018-Feb-10 23:00N 35°32' E 139°59'0 0.1
2018-Feb-10 22:27N 35°32' E 139°59'0 0.0
2018-Feb-10 22:00N 35°32' E 139°59'0 0.0
2018-Feb-10 21:27N 35°32' E 139°59'0 0.1
2018-Feb-10 20:57N 35°32' E 139°59'0 0.0
2018-Feb-10 20:30N 35°32' E 139°59'0 0.1
2018-Feb-10 20:00N 35°32' E 139°59'0 0.0
2018-Feb-10 19:30N 35°32' E 139°59'0 0.0
2018-Feb-10 18:57N 35°32' E 139°59'0 0.0
2018-Feb-10 18:30N 35°32' E 139°59'0 0.1
2018-Feb-10 17:57N 35°32' E 139°59'0 0.0
2018-Feb-10 17:30N 35°32' E 139°59'0 0.1
2018-Feb-10 17:00N 35°32' E 139°59'0 0.0
2018-Feb-10 16:30N 35°32' E 139°59'0 0.0
2018-Feb-10 15:58N 35°32' E 139°59'0 0.0
2018-Feb-10 15:28N 35°32' E 139°59'0 0.1
2018-Feb-10 14:58N 35°32' E 139°59'0 0.0
2018-Feb-10 14:30N 35°32' E 139°59'0 0.0
2018-Feb-10 13:57N 35°32' E 139°59'0 0.0
2018-Feb-10 13:27N 35°32' E 139°59'0 0.0
2018-Feb-10 12:57N 35°32' E 139°59'0 0.1
2018-Feb-10 12:27N 35°32' E 139°59'0 0.0
2018-Feb-10 11:57N 35°32' E 139°59'0 0.0
2018-Feb-10 11:28N 35°32' E 139°59'0 0.0
2018-Feb-10 10:57N 35°32' E 139°59'0 0.0
2018-Feb-10 10:27N 35°32' E 139°59'0 0.0
2018-Feb-10 09:57N 35°32' E 139°59'0 0.0
2018-Feb-10 09:27N 35°32' E 139°59'0 0.0
2018-Feb-10 09:00N 35°32' E 139°59'0 0.3
2018-Feb-10 08:30N 35°32' E 139°59'2 4.0
2018-Feb-10 08:00N 35°31' E 139°57'5 9.6
2018-Feb-10 07:31N 35°29' E 139°52'611.1
2018-Feb-10 07:00N 35°26' E 139°46'4 8.8
2018-Feb-10 06:31N 35°27' E 139°41'2 4.4
2018-Feb-10 06:01N 35°29' E 139°39'0 0.5
2018-Feb-10 05:30N 35°29' E 139°39'0 0.0
2018-Feb-10 05:00N 35°29' E 139°39'0 0.0
2018-Feb-10 04:30N 35°29' E 139°39'0 0.0
2018-Feb-10 04:00N 35°29' E 139°39'0 0.0
2018-Feb-10 03:30N 35°29' E 139°39'0 0.0
2018-Feb-10 03:00N 35°29' E 139°39'0 0.0
2018-Feb-10 02:30N 35°29' E 139°39'0 0.0
2018-Feb-10 02:00N 35°29' E 139°39'0 0.0
2018-Feb-10 01:30N 35°29' E 139°39'  
Track history (hours):
 
Tides and Currents Weather Stations Pressure Air Temp Water Temp Dewpoint Dewpoint Depression Visibility Wind Speed Wind Dir Waves Ship Positions

Malto Hope

Last reported at 2018-Feb-20 01:17 UTC. Time now 2018-Feb-20 01:55 UTC.
Position N 34°26' E 134°09'.

Length 169 m; draft 5.5 m.

Type: Cargo ship. MMSI: 371372000.

Date/timePositionNaut miles runAvg speedWind from/ knotsBaromVisibWave heightAir tempDewpointWater temp
2018-Feb-20 01:17N 34°26' E 134°09'413.6
2018-Feb-20 01:00N 34°24' E 134°14'613.1
2018-Feb-20 00:30N 34°25' E 134°22'713.4
2018-Feb-20 00:01N 34°27' E 134°29'713.4
2018-Feb-19 23:31N 34°30' E 134°37'713.3
2018-Feb-19 23:01N 34°32' E 134°44'713.3
2018-Feb-19 22:30N 34°35' E 134°52'612.7
2018-Feb-19 22:00N 34°38' E 134°59'5 9.3
2018-Feb-19 21:31N 34°36' E 135°04'3 6.6
2018-Feb-19 21:01N 34°34' E 135°08'4 8.6
2018-Feb-19 20:31N 34°30' E 135°08'611.6
2018-Feb-19 20:01N 34°25' E 135°04'611.4
2018-Feb-19 19:30N 34°20' E 135°01'510.3
2018-Feb-19 19:01N 34°15' E 134°59'510.5
2018-Feb-19 18:30N 34°10' E 134°59'5 9.2
2018-Feb-19 18:00N 34°05' E 134°60'510.3
2018-Feb-19 17:31N 34°00' E 134°60'510.3
2018-Feb-19 17:01N 33°55' E 134°59'510.6
2018-Feb-19 16:30N 33°50' E 134°59'158 3.9
2018-Feb-18 00:04N 34°13' E 138°07'2 8.3
2018-Feb-17 23:46N 34°14' E 138°10'3 7.7
2018-Feb-17 23:23N 34°15' E 138°13'3 7.3
2018-Feb-17 23:00N 34°16' E 138°17'5 7.6
2018-Feb-17 22:17N 34°18' E 138°23'2 6.7
2018-Feb-17 21:58N 34°19' E 138°25'4 6.0
2018-Feb-17 21:23N 34°20' E 138°29'3 6.6
2018-Feb-17 21:00N 34°21' E 138°32'4 7.2
2018-Feb-17 20:29N 34°23' E 138°36'4 7.9
2018-Feb-17 20:00N 34°24' E 138°40'5 8.3
2018-Feb-17 19:22N 34°27' E 138°46'3 8.1
2018-Feb-17 18:58N 34°28' E 138°49'4 7.8
2018-Feb-17 18:29N 34°28' E 138°54'4 8.5
2018-Feb-17 18:00N 34°29' E 138°59'6 9.5
2018-Feb-17 17:25N 34°34' E 139°03'4 9.9
2018-Feb-17 17:00N 34°37' E 139°05'811.2
2018-Feb-17 16:18N 34°44' E 139°11'310.2
2018-Feb-17 16:00N 34°46' E 139°13'510.5
2018-Feb-17 15:29N 34°51' E 139°17'510.1
2018-Feb-17 14:59N 34°54' E 139°22'510.7
2018-Feb-17 14:30N 34°57' E 139°27'511.2
2018-Feb-17 14:01N 34°60' E 139°32'611.9
2018-Feb-17 13:30N 35°03' E 139°39'612.3
2018-Feb-17 13:01N 35°07' E 139°44'510.4
2018-Feb-17 12:30N 35°12' E 139°46'612.0
2018-Feb-17 12:00N 35°18' E 139°44'612.4
2018-Feb-17 11:30N 35°24' E 139°43'612.7
2018-Feb-17 11:00N 35°29' E 139°48'4 6.9
2018-Feb-17 10:26N 35°29' E 139°43'0 0.0
2018-Feb-17 09:59N 35°29' E 139°43'0 0.0
2018-Feb-17 09:29N 35°29' E 139°43'0 0.0
2018-Feb-17 08:56N 35°29' E 139°43'0 0.0
2018-Feb-17 08:29N 35°29' E 139°43'0 0.0
2018-Feb-17 07:59N 35°29' E 139°43'0 0.0
2018-Feb-17 07:29N 35°29' E 139°43'0 0.0
2018-Feb-17 06:59N 35°29' E 139°43'0 0.0
2018-Feb-17 06:29N 35°29' E 139°43'0 0.0
2018-Feb-17 05:59N 35°29' E 139°43'0 0.0
2018-Feb-17 05:29N 35°29' E 139°43'0 0.0
2018-Feb-17 04:59N 35°29' E 139°43'0 0.0
2018-Feb-17 04:29N 35°29' E 139°43'0 0.0
2018-Feb-17 03:59N 35°29' E 139°43'0 0.0
2018-Feb-17 03:29N 35°29' E 139°43'0 0.0
2018-Feb-17 02:59N 35°29' E 139°43'0 0.0
2018-Feb-17 02:29N 35°29' E 139°43'0 0.0
2018-Feb-17 01:59N 35°29' E 139°43'0 0.0
2018-Feb-17 01:29N 35°29' E 139°43'0 0.0
2018-Feb-17 00:56N 35°29' E 139°43'0 0.0
2018-Feb-17 00:29N 35°29' E 139°43'0 0.0
2018-Feb-16 23:59N 35°29' E 139°43'0 0.0
2018-Feb-16 23:29N 35°29' E 139°43'0 0.0
2018-Feb-16 22:59N 35°29' E 139°43'0 0.8
2018-Feb-16 22:31N 35°29' E 139°42'2 4.6
2018-Feb-16 22:01N 35°27' E 139°43'2 3.2
2018-Feb-16 21:30N 35°27' E 139°45'1 2.2
2018-Feb-16 21:00N 35°28' E 139°47'0 0.1
2018-Feb-16 20:30N 35°28' E 139°47'0 0.1
2018-Feb-16 20:00N 35°28' E 139°47'0 0.0
2018-Feb-16 19:30N 35°28' E 139°47'0 0.1
2018-Feb-16 19:00N 35°28' E 139°47'0 0.1
2018-Feb-16 18:30N 35°28' E 139°47'0 0.0
2018-Feb-16 18:00N 35°28' E 139°47'0 0.0
2018-Feb-16 17:30N 35°28' E 139°47'0 0.0
2018-Feb-16 17:00N 35°28' E 139°47'0 0.1
2018-Feb-16 16:30N 35°28' E 139°47'0 0.0
2018-Feb-16 16:00N 35°28' E 139°47'0 0.0
2018-Feb-16 15:30N 35°28' E 139°47'0 0.0
2018-Feb-16 15:00N 35°28' E 139°47'0 0.0
2018-Feb-16 14:30N 35°28' E 139°47'0 0.1
2018-Feb-16 14:00N 35°28' E 139°47'0 0.0
2018-Feb-16 13:27N 35°28' E 139°47'0 0.0
2018-Feb-16 13:00N 35°28' E 139°47'0 0.0
2018-Feb-16 12:30N 35°28' E 139°47'0 0.0
2018-Feb-16 12:00N 35°28' E 139°47'0 0.0
2018-Feb-16 11:30N 35°28' E 139°47'0 0.0
2018-Feb-16 11:00N 35°28' E 139°47'0 0.0
2018-Feb-16 10:30N 35°28' E 139°47'0 0.0
2018-Feb-16 10:00N 35°28' E 139°47'0 0.0
2018-Feb-16 09:30N 35°28' E 139°47'0 0.0
2018-Feb-16 09:00N 35°28' E 139°47'0 0.0
2018-Feb-16 08:30N 35°28' E 139°47'0 0.0
2018-Feb-16 08:00N 35°28' E 139°47'0 0.1
2018-Feb-16 07:30N 35°28' E 139°47'0 0.0
2018-Feb-16 07:00N 35°28' E 139°47'0 0.0
2018-Feb-16 06:30N 35°28' E 139°47'0 0.0
2018-Feb-16 06:00N 35°28' E 139°47'0 0.0
2018-Feb-16 05:30N 35°28' E 139°47'0 0.0
2018-Feb-16 04:54N 35°28' E 139°47'0 0.0
2018-Feb-16 04:30N 35°28' E 139°47'0 0.1
2018-Feb-16 04:00N 35°28' E 139°47'0 0.0
2018-Feb-16 03:30N 35°28' E 139°47'0 0.0
2018-Feb-16 03:00N 35°28' E 139°47'0 0.0
2018-Feb-16 02:30N 35°28' E 139°47'0 0.0
2018-Feb-16 02:00N 35°28' E 139°47'0 0.0
2018-Feb-16 01:30N 35°28' E 139°47'0 0.0
2018-Feb-16 01:00N 35°28' E 139°47'0 0.0
2018-Feb-16 00:30N 35°28' E 139°47'0 0.1
2018-Feb-16 00:00N 35°28' E 139°47'0 0.1
2018-Feb-15 23:30N 35°28' E 139°47'0 0.0
2018-Feb-15 23:00N 35°28' E 139°47'0 0.0
2018-Feb-15 22:30N 35°28' E 139°47'0 0.1
2018-Feb-15 22:00N 35°28' E 139°47'0 0.0
2018-Feb-15 21:30N 35°28' E 139°47'0 0.1
2018-Feb-15 21:00N 35°27' E 139°47'0 0.0
2018-Feb-15 20:30N 35°28' E 139°47'0 0.0
2018-Feb-15 20:00N 35°28' E 139°47'0 0.0
2018-Feb-15 19:30N 35°28' E 139°47'0 0.0
2018-Feb-15 19:00N 35°28' E 139°47'0 0.0
2018-Feb-15 18:30N 35°28' E 139°47'0 0.0
2018-Feb-15 18:00N 35°28' E 139°47'0 0.0
2018-Feb-15 17:30N 35°28' E 139°47'0 0.0
2018-Feb-15 17:00N 35°28' E 139°47'0 0.0
2018-Feb-15 16:30N 35°28' E 139°47'0 0.1
2018-Feb-15 16:00N 35°28' E 139°47'0 0.1
2018-Feb-15 15:30N 35°28' E 139°47'0 0.2
2018-Feb-15 15:00N 35°28' E 139°47'0 0.0
2018-Feb-15 14:30N 35°28' E 139°47'0 0.0
2018-Feb-15 14:00N 35°28' E 139°47'0 0.0
2018-Feb-15 13:30N 35°28' E 139°47'0 0.0
2018-Feb-15 13:00N 35°28' E 139°47'0 0.0
2018-Feb-15 12:30N 35°28' E 139°47'0 0.0
2018-Feb-15 12:00N 35°28' E 139°47'0 0.0
2018-Feb-15 11:30N 35°28' E 139°47'0 0.0
2018-Feb-15 11:00N 35°28' E 139°47'0 0.0
2018-Feb-15 10:30N 35°28' E 139°47'0 0.0
2018-Feb-15 10:00N 35°28' E 139°47'0 0.0
2018-Feb-15 09:30N 35°28' E 139°47'0 0.1
2018-Feb-15 09:00N 35°28' E 139°47'0 0.0
2018-Feb-15 08:30N 35°28' E 139°47'0 0.1
2018-Feb-15 08:00N 35°28' E 139°47'0 0.1
2018-Feb-15 07:30N 35°28' E 139°47'0 0.0
2018-Feb-15 07:00N 35°28' E 139°47'0 0.0
2018-Feb-15 06:24N 35°28' E 139°47'0 0.0
2018-Feb-15 06:00N 35°28' E 139°47'0 0.0
2018-Feb-15 05:30N 35°28' E 139°47'0 0.1
2018-Feb-15 05:00N 35°28' E 139°47'0 0.0
2018-Feb-15 04:30N 35°28' E 139°47'0 0.1
2018-Feb-15 04:00N 35°28' E 139°47'0 0.1
2018-Feb-15 03:30N 35°28' E 139°47'0 0.0
2018-Feb-15 03:00N 35°28' E 139°47'0 0.0
2018-Feb-15 02:30N 35°28' E 139°47'0 0.1
2018-Feb-15 02:00N 35°28' E 139°47'0 0.0
2018-Feb-15 01:30N 35°28' E 139°47'0 0.0
2018-Feb-15 01:00N 35°28' E 139°47'0 0.1
2018-Feb-15 00:30N 35°28' E 139°47'0 0.1
2018-Feb-15 00:00N 35°28' E 139°47'0 0.1
2018-Feb-14 23:30N 35°28' E 139°47'0 0.0
2018-Feb-14 23:00N 35°28' E 139°47'0 0.2
2018-Feb-14 22:27N 35°28' E 139°47'0 0.1
2018-Feb-14 22:00N 35°28' E 139°47'0 0.2
2018-Feb-14 21:30N 35°28' E 139°47'0 0.0
2018-Feb-14 21:00N 35°28' E 139°47'0 0.1
2018-Feb-14 20:27N 35°28' E 139°47'0 0.0
2018-Feb-14 20:00N 35°28' E 139°47'0 0.0
2018-Feb-14 19:30N 35°28' E 139°47'0 0.0
2018-Feb-14 19:00N 35°28' E 139°47'0 0.1
2018-Feb-14 18:30N 35°28' E 139°47'0 0.0
2018-Feb-14 18:00N 35°28' E 139°47'0 0.0
2018-Feb-14 17:30N 35°28' E 139°47'0 0.0
2018-Feb-14 17:00N 35°28' E 139°47'0 0.0
2018-Feb-14 16:30N 35°28' E 139°47'0 0.0
2018-Feb-14 16:00N 35°28' E 139°47'0 0.1
2018-Feb-14 15:30N 35°28' E 139°47'0 0.1
2018-Feb-14 15:00N 35°28' E 139°47'0 0.0
2018-Feb-14 14:30N 35°28' E 139°47'0 0.1
2018-Feb-14 14:00N 35°28' E 139°47'0 0.0
2018-Feb-14 13:30N 35°28' E 139°47'0 0.0
2018-Feb-14 12:57N 35°28' E 139°47'0 0.0
2018-Feb-14 12:30N 35°28' E 139°47'0 0.1
2018-Feb-14 12:00N 35°28' E 139°47'0 0.0
2018-Feb-14 11:30N 35°28' E 139°47'0 0.1
2018-Feb-14 11:00N 35°28' E 139°47'0 0.1
2018-Feb-14 10:30N 35°28' E 139°47'0 0.0
2018-Feb-14 10:00N 35°28' E 139°47'0 0.0
2018-Feb-14 09:30N 35°28' E 139°47'0 0.0
2018-Feb-14 09:00N 35°28' E 139°47'0 0.6
2018-Feb-14 08:30N 35°27' E 139°47'0 0.1
2018-Feb-14 08:00N 35°27' E 139°47'0 0.5
2018-Feb-14 07:30N 35°27' E 139°47'0 0.2
2018-Feb-14 06:58N 35°28' E 139°47'0 0.3
2018-Feb-14 06:28N 35°28' E 139°47'0 0.6
2018-Feb-14 06:01N 35°28' E 139°47'4 7.3
2018-Feb-14 05:31N 35°30' E 139°51'510.3
2018-Feb-14 05:00N 35°32' E 139°56'510.6
2018-Feb-14 04:30N 35°35' E 140°02'3 6.0
2018-Feb-14 04:00N 35°36' E 140°05'0 0.2
2018-Feb-14 03:25N 35°36' E 140°05'0 0.0
2018-Feb-14 02:55N 35°36' E 140°05'0 0.0
2018-Feb-14 02:25N 35°36' E 140°05'0 0.0
2018-Feb-14 01:55N 35°36' E 140°05'0 0.0
2018-Feb-14 01:28N 35°36' E 140°05'0 0.0
2018-Feb-14 00:55N 35°36' E 140°05'0 0.0
2018-Feb-14 00:25N 35°36' E 140°05'0 0.0
2018-Feb-13 23:55N 35°36' E 140°05'0 0.0
2018-Feb-13 23:25N 35°36' E 140°05'0 0.0
2018-Feb-13 22:55N 35°36' E 140°05'0 0.0
2018-Feb-13 22:25N 35°36' E 140°05'0 0.0
2018-Feb-13 21:55N 35°36' E 140°05'0 0.0
2018-Feb-13 21:25N 35°36' E 140°05'0 0.0
2018-Feb-13 20:55N 35°36' E 140°05'0 0.0
2018-Feb-13 20:25N 35°36' E 140°05'0 0.0
2018-Feb-13 19:55N 35°36' E 140°05'0 0.0
2018-Feb-13 19:25N 35°36' E 140°05'0 0.0
2018-Feb-13 18:55N 35°36' E 140°05'0 0.0
2018-Feb-13 18:25N 35°36' E 140°05'0 0.0
2018-Feb-13 17:55N 35°36' E 140°05'0 0.0
2018-Feb-13 17:25N 35°36' E 140°05'0 0.0
2018-Feb-13 16:55N 35°36' E 140°05'0 0.0
2018-Feb-13 16:25N 35°36' E 140°05'0 0.0
2018-Feb-13 15:55N 35°36' E 140°05'0 0.0
2018-Feb-13 15:25N 35°36' E 140°05'0 0.0
2018-Feb-13 14:55N 35°36' E 140°05'0 0.0
2018-Feb-13 14:25N 35°36' E 140°05'0 0.0
2018-Feb-13 13:55N 35°36' E 140°05'0 0.0
2018-Feb-13 13:25N 35°36' E 140°05'0 0.0
2018-Feb-13 12:55N 35°36' E 140°05'0 0.0
2018-Feb-13 12:25N 35°36' E 140°05'0 0.0
2018-Feb-13 11:55N 35°36' E 140°05'0 0.0
2018-Feb-13 11:25N 35°36' E 140°05'0 0.0
2018-Feb-13 10:55N 35°36' E 140°05'0 0.0
2018-Feb-13 10:25N 35°36' E 140°05'0 0.0
2018-Feb-13 09:55N 35°36' E 140°05'0 0.0
2018-Feb-13 09:19N 35°36' E 140°05'0 0.0
2018-Feb-13 08:55N 35°36' E 140°05'0 0.0
2018-Feb-13 08:25N 35°36' E 140°05'0 0.0
2018-Feb-13 07:55N 35°36' E 140°05'0 0.0
2018-Feb-13 07:25N 35°36' E 140°05'0 0.0
2018-Feb-13 06:55N 35°36' E 140°05'0 0.0
2018-Feb-13 06:25N 35°36' E 140°05'0 0.0
2018-Feb-13 05:55N 35°36' E 140°05'0 0.0
2018-Feb-13 05:25N 35°36' E 140°05'0 0.0
2018-Feb-13 04:55N 35°36' E 140°05'0 0.0
2018-Feb-13 04:25N 35°36' E 140°05'0 0.0
2018-Feb-13 03:55N 35°36' E 140°05'0 0.0
2018-Feb-13 03:25N 35°36' E 140°05'0 0.0
2018-Feb-13 02:55N 35°36' E 140°05'0 0.0
2018-Feb-13 02:25N 35°36' E 140°05'0 0.0
2018-Feb-13 01:55N 35°36' E 140°05'0 0.0
2018-Feb-13 01:25N 35°36' E 140°05'0 0.0
2018-Feb-13 00:58N 35°36' E 140°05'0 0.0
2018-Feb-13 00:25N 35°36' E 140°05'0 0.0
2018-Feb-12 23:49N 35°36' E 140°05'0 0.0
2018-Feb-12 23:25N 35°36' E 140°05'0 0.0
2018-Feb-12 22:55N 35°36' E 140°05'0 1.1
2018-Feb-12 22:30N 35°36' E 140°05'3 6.0
2018-Feb-12 22:00N 35°35' E 140°02'4 6.6
2018-Feb-12 21:27N 35°32' E 139°59'0 0.1
2018-Feb-12 20:58N 35°32' E 139°59'0 0.1
2018-Feb-12 20:27N 35°32' E 139°59'0 0.3
2018-Feb-12 19:57N 35°32' E 139°59'0 0.0
2018-Feb-12 19:27N 35°32' E 139°59'0 0.0
2018-Feb-12 18:55N 35°32' E 139°59'0 0.0
2018-Feb-12 18:10N 35°32' E 139°59'0 0.1
2018-Feb-12 17:57N 35°32' E 139°59'0 0.0
2018-Feb-12 17:27N 35°32' E 139°59'0 0.0
2018-Feb-12 16:58N 35°32' E 139°59'0 0.0
2018-Feb-12 16:28N 35°32' E 139°59'0 0.0
2018-Feb-12 15:57N 35°32' E 139°59'0 0.0
2018-Feb-12 15:16N 35°32' E 139°59'0 0.1
2018-Feb-12 14:57N 35°32' E 139°59'0 0.0
2018-Feb-12 14:04N 35°32' E 139°59'0 0.0
2018-Feb-12 14:00N 35°32' E 139°59'0 0.0
2018-Feb-12 13:27N 35°32' E 139°59'0 0.0
2018-Feb-12 12:58N 35°32' E 139°59'0 0.0
2018-Feb-12 12:27N 35°32' E 139°59'0 0.0
2018-Feb-12 11:42N 35°32' E 139°59'0 0.1
2018-Feb-12 11:22N 35°32' E 139°59'0 0.0
2018-Feb-12 10:57N 35°32' E 139°59'0 0.0
2018-Feb-12 10:27N 35°32' E 139°59'0 0.0
2018-Feb-12 09:57N 35°32' E 139°59'0 0.1
2018-Feb-12 09:27N 35°32' E 139°59'0 0.0
2018-Feb-12 08:57N 35°32' E 139°59'0 0.0
2018-Feb-12 08:27N 35°32' E 139°59'0 0.0
2018-Feb-12 07:57N 35°32' E 139°59'0 0.0
2018-Feb-12 07:31N 35°32' E 139°59'0 0.0
2018-Feb-12 06:58N 35°32' E 139°59'0 0.0
2018-Feb-12 06:30N 35°32' E 139°59'0 0.0
2018-Feb-12 06:00N 35°32' E 139°59'0 0.0
2018-Feb-12 05:27N 35°32' E 139°59'0 0.0
2018-Feb-12 04:57N 35°32' E 139°59'0 0.0
2018-Feb-12 04:28N 35°32' E 139°59'0 0.0
2018-Feb-12 03:57N 35°32' E 139°59'0 0.0
2018-Feb-12 03:30N 35°32' E 139°59'0 0.0
2018-Feb-12 02:58N 35°32' E 139°59'0 0.1
2018-Feb-12 02:30N 35°32' E 139°59'0 0.0
2018-Feb-12 02:00N 35°32' E 139°59'0 0.0
2018-Feb-12 01:27N 35°32' E 139°59'0 0.0
2018-Feb-12 01:01N 35°32' E 139°59'0 0.0
2018-Feb-12 00:31N 35°32' E 139°59'0 0.0
2018-Feb-11 23:57N 35°32' E 139°59'0 0.0
2018-Feb-11 23:28N 35°32' E 139°59'0 0.0
2018-Feb-11 22:46N 35°32' E 139°59'0 0.0
2018-Feb-11 22:27N 35°32' E 139°59'0 0.1
2018-Feb-11 21:57N 35°32' E 139°59'0 0.2
2018-Feb-11 21:27N 35°32' E 139°59'0 0.1
2018-Feb-11 20:51N 35°32' E 139°59'0 0.1
2018-Feb-11 20:28N 35°32' E 139°59'0 0.0
2018-Feb-11 20:00N 35°32' E 139°59'0 0.1
2018-Feb-11 19:27N 35°32' E 139°59'0 0.1
2018-Feb-11 18:57N 35°32' E 139°59'0 0.0
2018-Feb-11 18:27N 35°32' E 139°59'0 0.0
2018-Feb-11 17:57N 35°32' E 139°59'0 0.0
2018-Feb-11 17:27N 35°32' E 139°59'0 0.0
2018-Feb-11 16:57N 35°32' E 139°59'0 0.0
2018-Feb-11 16:27N 35°32' E 139°59'0 0.0
2018-Feb-11 15:57N 35°32' E 139°59'0 0.0
2018-Feb-11 15:27N 35°32' E 139°59'0 0.0
2018-Feb-11 14:57N 35°32' E 139°59'0 0.0
2018-Feb-11 14:27N 35°32' E 139°59'0 0.0
2018-Feb-11 13:57N 35°32' E 139°59'0 0.0
2018-Feb-11 13:30N 35°32' E 139°59'0 0.0
2018-Feb-11 12:58N 35°32' E 139°59'0 0.0
2018-Feb-11 12:27N 35°32' E 139°59'0 0.0
2018-Feb-11 12:00N 35°32' E 139°59'0 0.0
2018-Feb-11 11:27N 35°32' E 139°59'0 0.0
2018-Feb-11 10:57N 35°32' E 139°59'0 0.0
2018-Feb-11 10:27N 35°32' E 139°59'0 0.0
2018-Feb-11 09:58N 35°32' E 139°59'0 0.0
2018-Feb-11 09:27N 35°32' E 139°59'0 0.1
2018-Feb-11 09:00N 35°32' E 139°59'0 0.0
2018-Feb-11 08:27N 35°32' E 139°59'0 0.0
2018-Feb-11 07:57N 35°32' E 139°59'0 0.0
2018-Feb-11 07:28N 35°32' E 139°59'0 0.0
2018-Feb-11 06:57N 35°32' E 139°59'0 0.0
2018-Feb-11 06:27N 35°32' E 139°59'0 0.1
2018-Feb-11 05:57N 35°32' E 139°59'0 0.1
2018-Feb-11 05:27N 35°32' E 139°59'0 0.1
2018-Feb-11 05:00N 35°32' E 139°59'0 0.0
2018-Feb-11 04:30N 35°32' E 139°59'0 0.2
2018-Feb-11 04:01N 35°32' E 139°59'0 0.1
2018-Feb-11 03:15N 35°32' E 139°59'0 0.0
2018-Feb-11 02:57N 35°32' E 139°59'0 0.0
2018-Feb-11 02:28N 35°32' E 139°59'0 0.0
2018-Feb-11 01:57N 35°32' E 139°59'0 0.0
2018-Feb-11 01:27N 35°32' E 139°59'0 0.1
2018-Feb-11 01:01N 35°32' E 139°59'0 0.0
2018-Feb-11 00:30N 35°32' E 139°59'0 0.0
2018-Feb-11 00:00N 35°32' E 139°59'0 0.0
2018-Feb-10 23:30N 35°32' E 139°59'0 0.0
2018-Feb-10 23:00N 35°32' E 139°59'0 0.1
2018-Feb-10 22:27N 35°32' E 139°59'0 0.0
2018-Feb-10 22:00N 35°32' E 139°59'0 0.0
2018-Feb-10 21:27N 35°32' E 139°59'0 0.1
2018-Feb-10 20:57N 35°32' E 139°59'0 0.0
2018-Feb-10 20:30N 35°32' E 139°59'0 0.1
2018-Feb-10 20:00N 35°32' E 139°59'0 0.0
2018-Feb-10 19:30N 35°32' E 139°59'0 0.0
2018-Feb-10 18:57N 35°32' E 139°59'0 0.0
2018-Feb-10 18:30N 35°32' E 139°59'0 0.1
2018-Feb-10 17:57N 35°32' E 139°59'0 0.0
2018-Feb-10 17:30N 35°32' E 139°59'0 0.1
2018-Feb-10 17:00N 35°32' E 139°59'0 0.0
2018-Feb-10 16:30N 35°32' E 139°59'0 0.0
2018-Feb-10 15:58N 35°32' E 139°59'0 0.0
2018-Feb-10 15:28N 35°32' E 139°59'0 0.1
2018-Feb-10 14:58N 35°32' E 139°59'0 0.0
2018-Feb-10 14:30N 35°32' E 139°59'0 0.0
2018-Feb-10 13:57N 35°32' E 139°59'0 0.0
2018-Feb-10 13:27N 35°32' E 139°59'0 0.0
2018-Feb-10 12:57N 35°32' E 139°59'0 0.1
2018-Feb-10 12:27N 35°32' E 139°59'0 0.0
2018-Feb-10 11:57N 35°32' E 139°59'0 0.0
2018-Feb-10 11:28N 35°32' E 139°59'0 0.0
2018-Feb-10 10:57N 35°32' E 139°59'0 0.0
2018-Feb-10 10:27N 35°32' E 139°59'0 0.0
2018-Feb-10 09:57N 35°32' E 139°59'0 0.0
2018-Feb-10 09:27N 35°32' E 139°59'0 0.0
2018-Feb-10 09:00N 35°32' E 139°59'0 0.3
2018-Feb-10 08:30N 35°32' E 139°59'2 4.0
2018-Feb-10 08:00N 35°31' E 139°57'5 9.6
2018-Feb-10 07:31N 35°29' E 139°52'611.1
2018-Feb-10 07:00N 35°26' E 139°46'4 8.8
2018-Feb-10 06:31N 35°27' E 139°41'2 4.4
2018-Feb-10 06:01N 35°29' E 139°39'0 0.5
2018-Feb-10 05:30N 35°29' E 139°39'0 0.0
2018-Feb-10 05:00N 35°29' E 139°39'0 0.0
2018-Feb-10 04:30N 35°29' E 139°39'0 0.0
2018-Feb-10 04:00N 35°29' E 139°39'0 0.0
2018-Feb-10 03:30N 35°29' E 139°39'0 0.0
2018-Feb-10 03:00N 35°29' E 139°39'0 0.0
2018-Feb-10 02:30N 35°29' E 139°39'0 0.0
2018-Feb-10 02:00N 35°29' E 139°39'0 0.0
2018-Feb-10 01:30N 35°29' E 139°39'  

Dump ship's entire track history